createdAt,value
2023-04-13T00:02:06.424Z,3.47
2023-04-13T00:04:34.151Z,4.18
2023-04-13T00:07:03.548Z,4.47
2023-04-13T00:09:32.918Z,4.55
2023-04-13T00:11:59.842Z,4.03
2023-04-13T00:14:35.342Z,4.60
2023-04-13T00:17:03.108Z,4.80
2023-04-13T00:19:29.814Z,4.05
2023-04-13T00:21:57.447Z,4.32
2023-04-13T00:24:24.112Z,4.82
2023-04-13T00:26:51.574Z,4.22
2023-04-13T00:29:18.209Z,4.47
2023-04-13T00:31:44.665Z,4.35
2023-04-13T00:34:11.265Z,4.60
2023-04-13T00:36:37.856Z,4.05
2023-04-13T00:39:04.352Z,4.65
2023-04-13T00:41:30.813Z,4.55
2023-04-13T00:43:59.032Z,4.50
2023-04-13T00:46:25.918Z,4.18
2023-04-13T00:48:52.930Z,5.13
2023-04-13T00:51:20.003Z,4.90
2023-04-13T00:53:46.526Z,5.18
2023-04-13T00:56:13.297Z,4.97
2023-04-13T01:01:06.441Z,5.60
2023-04-13T01:06:08.650Z,6.47
2023-04-13T01:08:48.028Z,6.18
2023-04-13T01:11:39.506Z,6.80
2023-04-13T01:14:11.427Z,6.43
2023-04-13T01:16:49.391Z,6.50
2023-04-13T01:19:28.330Z,6.18
2023-04-13T01:21:55.668Z,7.18
2023-04-13T01:24:41.906Z,6.88
2023-04-13T01:27:17.833Z,7.88
2023-04-13T01:29:46.680Z,7.88
2023-04-13T01:32:16.831Z,8.20
2023-04-13T01:34:43.444Z,8.27
2023-04-13T01:51:32.176Z,9.02
2023-04-13T01:54:12.951Z,9.70
2023-04-13T01:56:40.625Z,9.02
2023-04-13T01:59:16.810Z,11.70
2023-04-13T02:01:43.721Z,9.63
2023-04-13T02:04:10.436Z,9.98
2023-04-13T02:06:37.282Z,10.25
2023-04-13T02:11:35.304Z,9.32
2023-04-13T02:14:02.353Z,9.07
2023-04-13T02:16:31.482Z,8.57
2023-04-13T02:18:58.437Z,8.15
2023-04-13T02:21:25.824Z,8.25
2023-04-13T02:23:52.623Z,9.05
2023-04-13T02:28:46.481Z,7.53
2023-04-13T02:33:44.881Z,7.03
2023-04-13T02:36:15.233Z,8.00
2023-04-13T02:38:42.278Z,7.85
2023-04-13T02:41:09.248Z,7.15
2023-04-13T02:43:35.760Z,8.18
2023-04-13T02:46:02.300Z,7.72
2023-04-13T02:48:29.118Z,7.72
2023-04-13T02:50:55.660Z,7.30
2023-04-13T02:53:22.262Z,7.40
2023-04-13T02:55:50.470Z,7.90
2023-04-13T02:58:17.274Z,7.43
2023-04-13T03:00:44.636Z,9.07
2023-04-13T03:03:11.528Z,7.90
2023-04-13T03:05:38.906Z,6.78
2023-04-13T03:08:05.766Z,7.13
2023-04-13T03:10:32.329Z,7.13
2023-04-13T03:12:59.011Z,7.30
2023-04-13T03:15:25.455Z,6.30
2023-04-13T03:17:52.979Z,7.22
2023-04-13T03:20:20.897Z,7.13
2023-04-13T03:22:47.420Z,7.28
2023-04-13T03:25:13.844Z,7.07
2023-04-13T03:27:40.601Z,7.07
2023-04-13T03:32:34.247Z,6.80
2023-04-13T03:35:00.703Z,6.88
2023-04-13T03:37:30.214Z,6.30
2023-04-13T03:39:58.047Z,7.28
2023-04-13T03:42:24.492Z,7.35
2023-04-13T03:44:51.229Z,7.05
2023-04-13T03:49:44.063Z,6.40
2023-04-13T03:52:10.732Z,5.95
2023-04-13T03:54:38.116Z,6.22
2023-04-13T03:57:05.065Z,5.80
2023-04-13T03:59:31.556Z,6.70
2023-04-13T04:01:58.558Z,6.22
2023-04-13T04:04:25.472Z,6.18
2023-04-13T04:06:52.169Z,6.45
2023-04-13T04:09:18.661Z,5.80
2023-04-13T04:11:45.643Z,5.80
2023-04-13T04:14:12.079Z,6.30
2023-04-13T04:16:38.578Z,5.32
2023-04-13T04:19:05.107Z,5.47
2023-04-13T04:21:34.487Z,6.18
2023-04-13T04:24:06.197Z,5.95
2023-04-13T04:26:32.732Z,5.90
2023-04-13T04:29:02.830Z,5.38
2023-04-13T04:31:43.864Z,4.93
2023-04-13T04:34:11.662Z,5.60
2023-04-13T04:36:41.668Z,5.28
2023-04-13T04:39:09.986Z,5.47
2023-04-13T04:41:46.987Z,5.93
2023-04-13T04:44:16.729Z,5.25
2023-04-13T04:46:43.740Z,5.65
2023-04-13T04:49:11.122Z,5.50
2023-04-13T04:51:37.747Z,5.05
2023-04-13T04:54:05.304Z,5.22
2023-04-13T04:56:32.173Z,5.90
2023-04-13T04:58:58.863Z,6.32
2023-04-13T05:03:53.642Z,5.10
2023-04-13T05:06:20.360Z,5.40
2023-04-13T05:11:13.262Z,5.93
2023-04-13T05:13:39.690Z,5.80
2023-04-13T05:16:06.672Z,5.85
2023-04-13T05:18:46.602Z,5.43
2023-04-13T05:21:14.544Z,6.25
2023-04-13T05:23:42.184Z,6.40
2023-04-13T05:26:12.678Z,6.63
2023-04-13T05:28:39.769Z,6.57
2023-04-13T05:31:08.919Z,5.72
2023-04-13T05:33:35.935Z,6.03
2023-04-13T05:36:06.205Z,5.90
2023-04-13T05:38:33.119Z,6.43
2023-04-13T05:40:59.847Z,6.30
2023-04-13T05:45:53.249Z,5.53
2023-04-13T05:48:19.688Z,6.43
2023-04-13T05:50:46.371Z,6.07
2023-04-13T05:55:40.611Z,6.13
2023-04-13T05:58:08.803Z,7.25
2023-04-13T06:00:35.288Z,5.40
2023-04-13T06:03:02.521Z,4.93
2023-04-13T06:05:31.985Z,6.47
2023-04-13T06:07:59.848Z,5.63
2023-04-13T06:10:26.815Z,7.60
2023-04-13T06:12:56.400Z,7.22
2023-04-13T06:15:22.993Z,6.82
2023-04-13T06:17:58.222Z,6.55
2023-04-13T06:20:24.689Z,6.88
2023-04-13T06:22:53.492Z,5.90
2023-04-13T06:25:19.992Z,6.70
2023-04-13T06:27:47.388Z,6.75
2023-04-13T06:30:14.127Z,6.25
2023-04-13T06:35:07.364Z,5.38
2023-04-13T06:37:35.827Z,6.35
2023-04-13T06:40:15.828Z,5.22
2023-04-13T06:42:42.725Z,5.30
2023-04-13T06:45:10.199Z,4.68
2023-04-13T06:47:37.594Z,4.55
2023-04-13T06:50:06.904Z,5.72
2023-04-13T06:52:34.747Z,4.90
2023-04-13T06:55:02.048Z,5.30
2023-04-13T06:57:29.967Z,5.20
2023-04-13T06:59:56.687Z,4.93
2023-04-13T07:04:50.016Z,4.75
2023-04-13T07:07:16.821Z,4.03
2023-04-13T07:12:10.184Z,3.95
2023-04-13T07:17:04.852Z,4.10
2023-04-13T07:19:32.693Z,3.78
2023-04-13T07:22:00.617Z,3.50
2023-04-13T07:24:30.158Z,3.90
2023-04-13T07:27:00.291Z,3.45
2023-04-13T07:29:26.949Z,2.97
2023-04-13T07:31:59.556Z,3.53
2023-04-13T07:34:26.632Z,2.80
2023-04-13T07:36:58.773Z,2.70
2023-04-13T07:39:25.433Z,2.95
2023-04-13T07:41:52.224Z,2.67
2023-04-13T07:46:45.980Z,2.75
2023-04-13T07:49:12.806Z,2.60
2023-04-13T07:54:06.109Z,2.10
2023-04-13T07:58:59.553Z,2.10
2023-04-13T08:01:26.495Z,2.50
2023-04-13T08:06:21.524Z,2.20
2023-04-13T08:11:15.651Z,1.98
2023-04-13T08:13:42.405Z,1.80
2023-04-13T08:18:37.830Z,1.58
2023-04-13T08:21:10.899Z,1.63
2023-04-13T08:23:40.126Z,1.65
2023-04-13T08:26:06.687Z,1.38
2023-04-13T08:28:33.427Z,1.80
2023-04-13T08:33:29.502Z,1.63
2023-04-13T08:35:56.416Z,1.40
2023-04-13T08:38:22.883Z,1.40
2023-04-13T08:40:50.435Z,1.27
2023-04-13T08:43:19.569Z,1.13
2023-04-13T08:45:46.275Z,1.58
2023-04-13T08:48:14.281Z,1.27
2023-04-13T08:50:43.373Z,1.42
2023-04-13T08:53:12.807Z,1.17
2023-04-13T08:55:43.699Z,0.80
2023-04-13T08:58:12.387Z,0.95
2023-04-13T09:00:41.739Z,0.90
2023-04-13T09:03:14.103Z,1.23
2023-04-13T09:05:42.118Z,1.08
2023-04-13T09:08:13.686Z,1.10
2023-04-13T09:10:50.068Z,0.90
2023-04-13T09:13:16.735Z,1.00
2023-04-13T09:15:51.172Z,0.90
2023-04-13T09:18:22.921Z,1.00
2023-04-13T09:21:04.347Z,1.10
2023-04-13T09:23:31.657Z,1.00
2023-04-13T09:26:08.923Z,1.02
2023-04-13T09:28:51.267Z,1.10
2023-04-13T09:31:18.978Z,1.27
2023-04-13T09:33:48.844Z,1.15
2023-04-13T09:36:24.337Z,1.25
2023-04-13T09:38:52.798Z,0.98
2023-04-13T09:41:51.020Z,0.77
2023-04-13T09:44:24.617Z,0.85
2023-04-13T09:46:59.357Z,1.52
2023-04-13T09:49:26.693Z,1.20
2023-04-13T09:51:56.349Z,0.88
2023-04-13T09:54:22.952Z,1.08
2023-04-13T09:56:58.826Z,0.90
2023-04-13T09:59:27.434Z,1.00
2023-04-13T10:02:02.226Z,1.20
2023-04-13T10:04:30.904Z,1.05
2023-04-13T10:06:57.490Z,1.50
2023-04-13T10:09:27.336Z,1.13
2023-04-13T10:11:56.032Z,1.23
2023-04-13T10:14:31.664Z,1.00
2023-04-13T10:17:05.884Z,1.08
2023-04-13T10:19:41.319Z,1.08
2023-04-13T10:22:11.557Z,1.10
2023-04-13T10:24:39.944Z,1.20
2023-04-13T10:27:18.314Z,0.88
2023-04-13T10:29:45.375Z,0.75
2023-04-13T10:32:22.553Z,0.90
2023-04-13T10:34:49.623Z,0.75
2023-04-13T10:37:21.558Z,0.55
2023-04-13T10:39:48.359Z,0.60
2023-04-13T10:44:48.809Z,0.60
2023-04-13T10:47:17.180Z,0.80
2023-04-13T10:49:46.805Z,1.13
2023-04-13T10:52:13.594Z,0.70
2023-04-13T10:57:09.722Z,0.70
2023-04-13T11:02:16.588Z,1.02
2023-04-13T11:04:46.385Z,0.77
2023-04-13T11:07:15.255Z,0.95
2023-04-13T11:09:45.922Z,0.60
2023-04-13T11:12:13.147Z,0.70
2023-04-13T11:14:39.558Z,0.60
2023-04-13T11:17:07.735Z,0.77
2023-04-13T11:19:49.899Z,0.60
2023-04-13T11:22:18.636Z,0.77
2023-04-13T11:24:49.084Z,0.65
2023-04-13T11:27:23.298Z,0.70
2023-04-13T11:30:00.834Z,0.98
2023-04-13T11:32:30.672Z,0.63
2023-04-13T11:35:11.043Z,0.52
2023-04-13T11:37:39.630Z,0.95
2023-04-13T11:40:14.071Z,0.60
2023-04-13T11:42:46.280Z,0.80
2023-04-13T11:45:17.025Z,0.80
2023-04-13T11:47:46.296Z,0.75
2023-04-13T11:50:15.743Z,0.80
2023-04-13T11:52:43.684Z,0.82
2023-04-13T11:55:22.284Z,0.60
2023-04-13T11:57:50.830Z,0.65
2023-04-13T12:00:24.476Z,0.80
2023-04-13T12:03:02.980Z,0.63
2023-04-13T12:05:32.784Z,0.70
2023-04-13T12:08:00.844Z,0.60
2023-04-13T12:10:42.640Z,0.70
2023-04-13T12:16:04.987Z,0.80
2023-04-13T12:18:43.653Z,0.73
2023-04-13T12:21:20.481Z,1.02
2023-04-13T12:23:59.604Z,0.75
2023-04-13T12:29:08.579Z,0.45
2023-04-13T12:31:39.714Z,0.90
2023-04-13T12:34:08.166Z,0.70
2023-04-13T12:36:36.497Z,0.73
2023-04-13T12:39:04.452Z,1.10
2023-04-13T12:41:31.931Z,0.80
2023-04-13T12:43:58.386Z,0.63
2023-04-13T12:46:25.250Z,1.10
2023-04-13T12:48:52.947Z,0.90
2023-04-13T12:51:19.490Z,1.08
2023-04-13T12:53:46.131Z,0.50
2023-04-13T12:56:12.866Z,0.90
2023-04-13T13:01:06.917Z,0.60
2023-04-13T13:03:34.042Z,1.05
2023-04-13T13:06:00.878Z,0.70
2023-04-13T13:11:01.003Z,0.80
2023-04-13T13:13:27.437Z,0.75
2023-04-13T13:15:53.942Z,0.85
2023-04-13T13:18:20.442Z,0.50
2023-04-13T13:20:49.307Z,0.93
2023-04-13T13:23:16.043Z,0.85
2023-04-13T13:25:54.214Z,0.75
2023-04-13T13:28:31.086Z,0.90
2023-04-13T13:30:57.521Z,0.50
2023-04-13T13:33:24.257Z,1.05
2023-04-13T13:38:17.162Z,0.90
2023-04-13T13:40:43.661Z,0.85
2023-04-13T13:43:10.961Z,0.85
2023-04-13T13:45:56.266Z,0.80
2023-04-13T13:48:33.988Z,0.70
2023-04-13T13:51:01.044Z,0.63
2023-04-13T13:53:30.280Z,0.70
2023-04-13T13:55:56.805Z,0.75
2023-04-13T13:58:23.319Z,1.08
2023-04-13T14:00:50.761Z,0.73
2023-04-13T14:03:38.667Z,1.00
2023-04-13T14:08:31.648Z,0.77
2023-04-13T14:10:58.905Z,0.80
2023-04-13T14:13:25.444Z,1.13
2023-04-13T14:15:52.009Z,0.90
2023-04-13T14:18:23.709Z,1.10
2023-04-13T14:20:51.189Z,1.23
2023-04-13T14:23:18.452Z,1.10
2023-04-13T14:25:44.998Z,1.00
2023-04-13T14:28:11.862Z,0.82
2023-04-13T14:30:41.481Z,0.90
2023-04-13T14:33:10.475Z,0.65
2023-04-13T14:35:38.806Z,1.42
2023-04-13T14:45:41.171Z,0.57
2023-04-13T14:48:08.043Z,0.80
2023-04-13T14:50:38.301Z,0.70
2023-04-13T14:53:07.475Z,0.60
2023-04-13T14:55:34.313Z,0.50
2023-04-13T15:00:40.294Z,0.90
2023-04-13T15:03:10.904Z,1.15
2023-04-13T15:06:01.272Z,0.98
2023-04-13T15:08:30.002Z,1.05
2023-04-13T15:13:23.000Z,0.70
2023-04-13T15:15:52.091Z,0.80
2023-04-13T15:18:18.720Z,0.70
2023-04-13T15:20:45.286Z,0.88
2023-04-13T15:23:20.030Z,1.10
2023-04-13T15:25:47.099Z,1.00
2023-04-13T15:30:42.338Z,0.65
2023-04-13T15:33:09.011Z,0.90
2023-04-13T15:35:35.955Z,1.50
2023-04-13T15:38:02.608Z,0.80
2023-04-13T15:40:40.650Z,0.90
2023-04-13T15:43:10.644Z,0.70
2023-04-13T15:45:37.148Z,0.70
2023-04-13T15:48:03.886Z,0.90
2023-04-13T15:52:57.150Z,1.05
2023-04-13T15:57:53.642Z,0.80
2023-04-13T16:00:20.307Z,0.63
2023-04-13T16:02:47.155Z,0.90
2023-04-13T16:05:13.811Z,1.20
2023-04-13T16:07:40.256Z,0.80
2023-04-13T16:10:07.649Z,1.25
2023-04-13T16:12:34.805Z,0.80
2023-04-13T16:15:02.219Z,0.70
2023-04-13T16:17:31.747Z,0.82
2023-04-13T16:20:17.698Z,1.05
2023-04-13T16:22:48.982Z,0.85
2023-04-13T16:25:16.662Z,0.80
2023-04-13T16:27:43.604Z,0.65
2023-04-13T16:30:13.012Z,1.00
2023-04-13T16:32:46.724Z,0.95
2023-04-13T16:35:13.699Z,0.80
2023-04-13T16:40:11.028Z,0.80
2023-04-13T16:42:38.997Z,0.77
2023-04-13T16:45:07.469Z,0.90
2023-04-13T16:47:34.149Z,0.65
2023-04-13T16:50:00.744Z,0.95
2023-04-13T16:52:27.310Z,1.00
2023-04-13T16:54:53.836Z,0.80
2023-04-13T16:57:20.667Z,0.70
2023-04-13T17:02:30.232Z,0.85
2023-04-13T17:04:57.840Z,0.68
2023-04-13T17:07:44.602Z,0.68
2023-04-13T17:30:18.314Z,0.63
2023-04-13T17:32:45.584Z,0.82
2023-04-13T17:35:12.206Z,0.63
2023-04-13T17:37:41.453Z,0.95
2023-04-13T17:40:08.693Z,0.82
2023-04-13T17:42:35.528Z,0.90
2023-04-13T17:47:31.848Z,0.90
2023-04-13T17:49:58.622Z,0.95
2023-04-13T17:52:25.051Z,0.80
2023-04-13T17:54:54.182Z,0.70
2023-04-13T17:57:20.861Z,0.77
2023-04-13T17:59:49.715Z,0.43
2023-04-13T18:02:18.512Z,1.23
2023-04-13T18:04:45.482Z,0.90
2023-04-13T18:07:12.094Z,0.70
2023-04-13T18:09:38.552Z,1.25
2023-04-13T18:12:05.089Z,0.75
2023-04-13T18:14:31.661Z,1.73
2023-04-13T18:16:58.481Z,1.00
2023-04-13T18:21:58.022Z,0.60
2023-04-13T18:24:47.559Z,1.08
2023-04-13T18:38:46.658Z,1.30
2023-04-13T18:41:23.856Z,1.27
2023-04-13T18:43:50.503Z,1.52
2023-04-13T18:48:43.611Z,1.10
2023-04-13T18:51:12.303Z,1.08
2023-04-13T18:53:39.238Z,1.00
2023-04-13T18:56:05.871Z,1.40
2023-04-13T18:58:32.349Z,1.63
2023-04-13T19:00:58.910Z,1.88
2023-04-13T19:03:25.635Z,1.50
2023-04-13T19:08:20.878Z,1.50
2023-04-13T19:10:47.386Z,1.10
2023-04-13T19:13:15.602Z,1.52
2023-04-13T19:15:42.154Z,1.27
2023-04-13T19:18:11.341Z,1.20
2023-04-13T19:20:38.218Z,1.33
2023-04-13T19:25:31.380Z,1.48
2023-04-13T19:30:37.988Z,1.70
2023-04-13T19:33:04.858Z,1.60
2023-04-13T19:35:32.994Z,1.48
2023-04-13T19:38:01.992Z,1.60
2023-04-13T19:40:28.569Z,1.67
2023-04-13T19:42:59.633Z,1.90
2023-04-13T19:45:26.268Z,1.65
2023-04-13T19:50:33.641Z,2.03
2023-04-13T19:53:00.133Z,2.03
2023-04-13T19:55:29.877Z,2.33
2023-04-13T19:57:58.952Z,1.73
2023-04-13T20:00:26.967Z,1.85
2023-04-13T20:02:58.672Z,1.65
2023-04-13T20:05:25.392Z,2.28
2023-04-13T20:08:06.198Z,1.70
2023-04-13T20:14:19.775Z,2.10
2023-04-13T20:16:46.385Z,2.35
2023-04-13T20:19:13.096Z,1.83
2023-04-13T20:25:19.387Z,2.30
2023-04-13T20:27:46.030Z,1.83
2023-04-13T20:30:15.390Z,2.03
2023-04-13T20:32:42.118Z,2.92
2023-04-13T20:37:36.142Z,3.63
2023-04-13T20:40:07.054Z,3.28
2023-04-13T20:42:36.900Z,3.58
2023-04-13T20:45:20.935Z,3.92
2023-04-13T20:47:59.566Z,4.00
2023-04-13T20:50:27.582Z,3.88
2023-04-13T20:52:56.713Z,5.13
2023-04-13T20:55:25.727Z,5.88
2023-04-13T20:57:55.262Z,4.57
2023-04-13T21:00:25.027Z,4.60
2023-04-13T21:02:54.912Z,5.78
2023-04-13T21:05:22.477Z,7.57
2023-04-13T21:07:58.319Z,7.95
2023-04-13T21:10:25.010Z,8.63
2023-04-13T21:15:19.691Z,8.70
2023-04-13T21:17:46.185Z,7.78
2023-04-13T21:20:12.786Z,8.93
2023-04-13T21:22:41.577Z,8.32
2023-04-13T21:25:08.287Z,7.50
2023-04-13T21:30:01.310Z,8.40
2023-04-13T21:32:27.874Z,7.68
2023-04-13T21:34:55.146Z,8.32
2023-04-13T21:37:21.862Z,7.72
2023-04-13T21:39:48.327Z,8.38
2023-04-13T21:42:16.898Z,7.57
2023-04-13T21:44:43.327Z,8.60
2023-04-13T21:47:09.756Z,7.18
2023-04-13T21:49:36.395Z,7.55
2023-04-13T21:52:03.080Z,8.32
2023-04-13T21:56:55.982Z,7.00
2023-04-13T21:59:27.264Z,7.82
2023-04-13T22:01:54.669Z,7.28
2023-04-13T22:04:21.454Z,7.43
2023-04-13T22:09:14.539Z,6.80
2023-04-13T22:11:41.389Z,6.50
2023-04-13T22:14:07.881Z,6.75
2023-04-13T22:16:34.464Z,7.80
2023-04-13T22:19:01.167Z,6.50
2023-04-13T22:21:28.032Z,6.60
2023-04-13T22:26:21.206Z,6.18
2023-04-13T22:31:14.130Z,6.75
2023-04-13T22:33:40.961Z,6.07
2023-04-13T22:36:22.810Z,7.00
2023-04-13T22:38:49.826Z,6.80
2023-04-13T22:41:16.369Z,6.30
2023-04-13T22:43:42.927Z,6.80
2023-04-13T22:46:09.450Z,7.38
2023-04-13T22:48:36.017Z,7.13
2023-04-13T22:51:03.654Z,7.25
2023-04-13T22:53:33.254Z,6.63
2023-04-13T22:56:00.764Z,6.60
2023-04-13T22:58:27.927Z,6.80
2023-04-13T23:00:54.456Z,6.88
2023-04-13T23:03:21.617Z,6.53
2023-04-13T23:05:48.272Z,6.63
2023-04-13T23:08:14.707Z,6.30
2023-04-13T23:10:41.666Z,7.28
2023-04-13T23:13:08.172Z,6.88
2023-04-13T23:15:34.707Z,7.18
2023-04-13T23:18:02.720Z,6.75
2023-04-13T23:20:29.524Z,6.20
2023-04-13T23:22:55.963Z,5.97
2023-04-13T23:25:22.411Z,7.10
2023-04-13T23:27:48.884Z,6.95
2023-04-13T23:30:16.160Z,6.85
2023-04-13T23:32:42.699Z,7.20
2023-04-13T23:35:09.345Z,7.15
2023-04-13T23:37:35.973Z,6.43
2023-04-13T23:40:02.478Z,7.38
2023-04-13T23:42:32.020Z,6.18
2023-04-13T23:44:58.874Z,6.18
2023-04-13T23:47:25.781Z,6.90
2023-04-13T23:49:54.183Z,6.40
2023-04-13T23:52:20.826Z,5.57
2023-04-13T23:54:47.311Z,5.75
2023-04-13T23:57:13.755Z,6.15
2023-04-13T23:59:40.431Z,5.00
